Time;durP1;ratioP1;P1;durP2;ratioP2;P2;SDS_P1;SDS_P2;PMS_P1;PMS_P2;Temp;Humidity;BMP_temperature;BMP_pressure;BME280_temperature;BME280_humidity;BME280_pressure;Samples;Min_cycle;Max_cycle;Signal;HPM_P1;HPM_P2
2023/05/22 00:02:23;;;;;;;18.93;14.80;;;17.60;99.90;;;;;;5114560;28;20170;-82
2023/05/22 00:04:49;;;;;;;16.03;13.77;;;17.60;99.90;;;;;;5114251;28;20192;-82
2023/05/22 00:07:15;;;;;;;16.33;13.70;;;17.60;99.90;;;;;;5115510;28;20253;-82
2023/05/22 00:09:41;;;;;;;16.47;13.43;;;17.50;99.90;;;;;;5113918;28;20619;-82
2023/05/22 00:12:06;;;;;;;18.67;13.27;;;17.50;99.90;;;;;;5115852;28;20592;-82
2023/05/22 00:14:32;;;;;;;17.10;13.77;;;17.50;99.90;;;;;;5115347;28;20189;-82
2023/05/22 00:16:58;;;;;;;16.60;14.17;;;17.50;99.90;;;;;;5115687;28;20542;-82
2023/05/22 00:19:24;;;;;;;15.13;12.53;;;17.50;99.90;;;;;;5113988;28;20169;-82
2023/05/22 00:21:50;;;;;;;15.83;12.60;;;17.50;99.90;;;;;;5114933;28;20719;-82
2023/05/22 00:24:16;;;;;;;14.40;12.83;;;17.40;99.90;;;;;;5113443;28;20169;-82
2023/05/22 00:26:41;;;;;;;15.47;12.37;;;17.40;99.90;;;;;;5113613;28;20227;-82
2023/05/22 00:29:07;;;;;;;14.90;11.77;;;17.40;99.90;;;;;;5113859;28;20177;-82
2023/05/22 00:31:32;;;;;;;15.53;12.63;;;17.40;99.90;;;;;;5113969;28;20260;-81
2023/05/22 00:33:58;;;;;;;15.17;13.20;;;17.40;99.90;;;;;;5115116;28;20174;-82
2023/05/22 00:36:24;;;;;;;14.30;12.63;;;17.30;99.90;;;;;;5113609;28;20197;-82
2023/05/22 00:38:50;;;;;;;16.47;12.53;;;17.40;99.90;;;;;;5113588;28;20197;-82
2023/05/22 00:41:15;;;;;;;15.67;13.23;;;17.30;99.90;;;;;;5115372;28;20688;-82
2023/05/22 00:43:41;;;;;;;13.97;12.50;;;17.30;99.90;;;;;;5113303;28;20180;-83
2023/05/22 00:46:07;;;;;;;14.80;12.43;;;17.30;99.90;;;;;;5113654;28;20280;-81
2023/05/22 00:48:32;;;;;;;14.00;12.50;;;17.20;99.90;;;;;;5114093;28;20181;-83
2023/05/22 00:50:58;;;;;;;18.47;13.53;;;17.30;99.90;;;;;;5113361;28;20634;-83
2023/05/22 00:53:27;;;;;;;15.70;13.17;;;17.20;99.90;;;;;;5113931;28;20216;-82
2023/05/22 00:55:53;;;;;;;20.00;13.27;;;17.30;99.90;;;;;;5113227;28;20242;-82
2023/05/22 00:58:20;;;;;;;15.20;12.90;;;17.30;99.90;;;;;;5113137;28;20206;-82
2023/05/22 01:00:46;;;;;;;15.13;12.50;;;17.30;99.90;;;;;;5113545;28;20177;-81
2023/05/22 01:03:13;;;;;;;14.83;13.20;;;17.30;99.90;;;;;;5114905;28;20657;-82
2023/05/22 01:05:39;;;;;;;17.43;12.67;;;17.20;99.90;;;;;;5114861;28;20190;-82
2023/05/22 01:08:06;;;;;;;17.00;12.80;;;17.20;99.90;;;;;;5114377;28;20230;-82
2023/05/22 01:10:34;;;;;;;15.80;13.17;;;17.20;99.90;;;;;;5114255;28;20178;-83
2023/05/22 01:13:44;;;;;;;15.60;12.53;;;17.20;99.90;;;;;;5116588;28;20197;-82
2023/05/22 01:16:17;;;;;;;14.80;12.87;;;17.20;99.90;;;;;;5112695;28;20716;-82
2023/05/22 01:18:55;;;;;;;14.73;13.03;;;17.10;99.90;;;;;;5114752;28;20309;-82
2023/05/22 01:21:23;;;;;;;15.93;12.83;;;17.10;99.90;;;;;;5114491;28;20216;-81
2023/05/22 01:24:14;;;;;;;14.60;12.40;;;17.10;99.90;;;;;;5112918;28;20220;-82
2023/05/22 01:27:07;;;;;;;14.87;12.47;;;17.10;99.90;;;;;;5114885;28;20160;-82
2023/05/22 01:30:13;;;;;;;15.03;12.47;;;17.10;99.90;;;;;;5113445;28;20230;-82
2023/05/22 01:32:43;;;;;;;13.67;12.23;;;17.00;99.90;;;;;;5051692;28;20190;-81
2023/05/22 01:35:14;;;;;;;18.73;13.67;;;17.00;99.90;;;;;;5112767;28;20193;-81
2023/05/22 01:37:41;;;;;;;15.97;11.83;;;17.10;99.90;;;;;;5114652;28;20186;-82
2023/05/22 01:40:08;;;;;;;19.53;13.50;;;17.00;99.90;;;;;;5112490;28;20181;-82
2023/05/22 01:42:34;;;;;;;13.60;12.20;;;17.00;99.90;;;;;;5113058;28;20169;-82
2023/05/22 01:44:59;;;;;;;13.80;12.40;;;16.90;99.90;;;;;;5114268;28;20208;-81
2023/05/22 01:47:25;;;;;;;17.40;12.77;;;16.90;99.90;;;;;;5112799;28;20209;-82
2023/05/22 01:49:51;;;;;;;14.53;12.70;;;16.90;99.90;;;;;;5114270;28;20180;-82
2023/05/22 01:52:34;;;;;;;14.93;13.33;;;16.90;99.90;;;;;;5113106;28;20293;-82
2023/05/22 01:55:12;;;;;;;15.37;12.93;;;16.90;99.90;;;;;;5112868;28;20201;-82
2023/05/22 01:57:58;;;;;;;16.53;13.23;;;16.80;99.90;;;;;;5114316;28;20230;-82
2023/05/22 02:00:26;;;;;;;16.03;13.93;;;16.70;99.90;;;;;;5112958;28;20616;-82
2023/05/22 02:02:59;;;;;;;15.27;13.57;;;16.80;99.90;;;;;;5112960;28;20177;-82
2023/05/22 02:05:26;;;;;;;17.97;13.97;;;16.80;99.90;;;;;;5112355;28;20190;-81
2023/05/22 02:07:54;;;;;;;16.40;13.33;;;16.70;99.90;;;;;;5117759;28;20169;-82
2023/05/22 02:10:21;;;;;;;15.20;13.67;;;16.80;99.90;;;;;;5117772;28;20427;-81
2023/05/22 02:12:47;;;;;;;14.87;13.30;;;16.70;99.90;;;;;;5116703;28;20314;-82
2023/05/22 02:15:14;;;;;;;16.37;13.43;;;16.70;99.90;;;;;;5118029;28;20221;-82
2023/05/22 02:17:39;;;;;;;17.13;14.03;;;16.70;99.90;;;;;;5116651;28;20209;-82
2023/05/22 02:20:15;;;;;;;17.43;14.03;;;16.70;99.90;;;;;;5116434;28;20638;-82
2023/05/22 02:22:43;;;;;;;15.33;13.70;;;16.70;99.90;;;;;;5118150;28;20507;-82
2023/05/22 02:25:16;;;;;;;16.40;13.33;;;16.70;99.90;;;;;;5116183;28;20671;-81
2023/05/22 02:27:43;;;;;;;15.73;13.70;;;16.60;99.90;;;;;;5116238;28;20174;-81
2023/05/22 02:30:10;;;;;;;16.30;13.67;;;16.60;99.90;;;;;;5117733;28;20173;-82
2023/05/22 02:32:37;;;;;;;15.13;13.03;;;16.60;99.90;;;;;;5117561;28;20531;-82
2023/05/22 02:35:03;;;;;;;16.30;14.60;;;16.60;99.90;;;;;;5116103;28;20201;-82
2023/05/22 02:37:29;;;;;;;16.40;13.40;;;16.50;99.90;;;;;;5117567;28;20262;-82
2023/05/22 02:39:56;;;;;;;23.83;14.87;;;16.70;99.90;;;;;;5117516;28;20178;-81
2023/05/22 02:42:22;;;;;;;17.00;14.30;;;16.50;99.90;;;;;;5117501;28;20260;-82
2023/05/22 02:44:47;;;;;;;13.87;12.47;;;16.40;99.90;;;;;;5115512;28;20198;-82
2023/05/22 02:47:13;;;;;;;14.97;13.37;;;16.50;99.90;;;;;;5115698;28;20276;-81
2023/05/22 02:49:39;;;;;;;15.63;13.20;;;16.40;99.90;;;;;;5117136;28;20185;-81
2023/05/22 02:52:04;;;;;;;15.73;14.03;;;16.40;99.90;;;;;;5116846;28;20191;-82
2023/05/22 02:54:30;;;;;;;16.37;13.70;;;16.30;99.90;;;;;;5115217;28;20197;-82
2023/05/22 02:56:55;;;;;;;17.17;14.20;;;16.30;99.90;;;;;;5116749;28;20178;-82
2023/05/22 02:59:21;;;;;;;16.80;14.40;;;16.30;99.90;;;;;;5116800;28;20225;-82
2023/05/22 03:01:47;;;;;;;16.03;13.73;;;16.30;99.90;;;;;;5115249;28;20233;-82
2023/05/22 03:04:13;;;;;;;21.13;14.93;;;16.30;99.90;;;;;;5115698;28;20178;-82
2023/05/22 03:06:39;;;;;;;15.77;14.07;;;16.30;99.90;;;;;;5114929;28;20176;-81
2023/05/22 03:09:05;;;;;;;15.87;13.33;;;16.20;99.90;;;;;;5116791;28;20200;-82
2023/05/22 03:11:31;;;;;;;17.70;14.03;;;16.20;99.90;;;;;;5115273;28;20583;-82
2023/05/22 03:13:57;;;;;;;16.23;13.23;;;16.20;99.90;;;;;;5115150;28;20273;-82
2023/05/22 03:16:23;;;;;;;15.60;13.50;;;16.10;99.90;;;;;;5115052;28;20189;-81
2023/05/22 03:18:49;;;;;;;16.47;13.87;;;16.10;99.90;;;;;;5115104;28;20247;-81
2023/05/22 03:21:15;;;;;;;16.83;14.67;;;16.00;99.90;;;;;;5116416;28;20170;-81
2023/05/22 03:23:43;;;;;;;16.17;14.47;;;16.00;99.90;;;;;;5117205;28;20669;-82
2023/05/22 03:26:08;;;;;;;16.13;14.03;;;16.00;99.90;;;;;;5116592;28;20669;-82
2023/05/22 03:28:34;;;;;;;15.00;12.83;;;16.00;99.90;;;;;;5114924;28;20203;-81
2023/05/22 03:31:00;;;;;;;16.10;13.80;;;16.00;99.90;;;;;;5114957;28;20658;-81
2023/05/22 03:33:25;;;;;;;16.07;13.97;;;16.00;99.90;;;;;;5104754;28;20268;-81
2023/05/22 03:35:52;;;;;;;14.63;12.53;;;15.90;99.90;;;;;;5095828;28;20190;-82
2023/05/22 03:38:17;;;;;;;16.40;14.40;;;15.90;99.90;;;;;;5095721;28;20197;-81
2023/05/22 03:40:43;;;;;;;15.67;13.90;;;15.90;99.90;;;;;;5095608;28;20166;-81
2023/05/22 03:43:08;;;;;;;16.93;13.97;;;15.80;99.90;;;;;;5108558;28;20182;-81
2023/05/22 03:45:34;;;;;;;15.53;13.80;;;15.80;99.90;;;;;;5114720;28;20696;-83
2023/05/22 03:48:00;;;;;;;16.43;14.10;;;15.80;99.90;;;;;;5114627;28;20264;-81
2023/05/22 03:50:25;;;;;;;18.03;13.80;;;15.90;99.90;;;;;;5114587;28;20177;-80
2023/05/22 03:52:51;;;;;;;17.80;14.23;;;15.80;99.90;;;;;;5114313;28;20180;-82
2023/05/22 03:55:16;;;;;;;20.20;13.50;;;15.70;99.90;;;;;;5114343;28;20678;-81
2023/05/22 03:57:42;;;;;;;15.33;13.73;;;15.70;99.90;;;;;;5114772;28;20197;-81
2023/05/22 04:00:11;;;;;;;16.40;12.63;;;15.70;99.90;;;;;;5115576;28;20227;-81
2023/05/22 04:02:43;;;;;;;14.20;12.70;;;15.70;99.90;;;;;;5114571;28;20173;-81
2023/05/22 04:05:09;;;;;;;16.07;12.47;;;15.80;99.90;;;;;;5114862;28;20223;-80
2023/05/22 04:07:35;;;;;;;14.90;12.07;;;15.70;99.90;;;;;;5115811;28;20169;-81
2023/05/22 04:10:05;;;;;;;14.10;12.67;;;15.60;99.90;;;;;;5114544;28;20229;-81
2023/05/22 04:12:30;;;;;;;14.83;12.40;;;15.60;99.90;;;;;;5114260;28;20203;-81
2023/05/22 04:14:56;;;;;;;13.80;12.30;;;15.60;99.90;;;;;;5114698;28;20197;-81
2023/05/22 04:17:21;;;;;;;15.57;13.47;;;15.60;99.90;;;;;;5115173;28;20540;-80
2023/05/22 04:19:47;;;;;;;15.47;12.90;;;15.60;99.90;;;;;;5115007;28;20261;-81
2023/05/22 04:22:12;;;;;;;17.67;13.23;;;15.60;99.90;;;;;;5113572;28;20783;-81
2023/05/22 04:24:38;;;;;;;16.37;12.40;;;15.60;99.90;;;;;;5113840;28;20194;-81
2023/05/22 04:27:05;;;;;;;15.17;12.23;;;15.60;99.90;;;;;;5114053;28;20215;-81
2023/05/22 04:29:30;;;;;;;14.57;12.80;;;15.50;99.90;;;;;;5114411;28;20165;-80
2023/05/22 04:31:56;;;;;;;15.80;14.10;;;15.50;99.90;;;;;;5114827;28;20180;-80
2023/05/22 04:34:21;;;;;;;16.37;14.00;;;15.50;99.90;;;;;;5113748;28;20173;-80
2023/05/22 04:36:47;;;;;;;17.10;14.63;;;15.50;99.90;;;;;;5115154;28;20173;-80
2023/05/22 04:39:13;;;;;;;16.10;13.77;;;15.50;99.90;;;;;;5114695;28;20196;-82
2023/05/22 04:41:39;;;;;;;19.97;14.57;;;15.50;99.90;;;;;;5114392;28;20177;-81
2023/05/22 04:44:06;;;;;;;16.90;14.07;;;15.50;99.90;;;;;;5115495;28;20161;-81
2023/05/22 04:46:33;;;;;;;14.53;13.03;;;15.50;99.90;;;;;;5113560;28;20189;-81
2023/05/22 04:49:00;;;;;;;19.20;13.63;;;15.50;99.90;;;;;;5115211;28;20172;-81
2023/05/22 04:51:27;;;;;;;19.73;14.70;;;15.50;99.90;;;;;;5113933;28;20173;-81
2023/05/22 04:53:54;;;;;;;17.90;14.87;;;15.50;99.90;;;;;;5113368;28;20535;-81
2023/05/22 04:56:21;;;;;;;15.73;14.07;;;15.60;99.90;;;;;;5113437;28;20201;-81
2023/05/22 04:58:48;;;;;;;21.10;13.93;;;15.60;99.90;;;;;;5113382;28;20198;-81
2023/05/22 05:01:15;;;;;;;17.60;13.30;;;15.60;99.90;;;;;;5109355;28;20189;-81
2023/05/22 05:03:41;;;;;;;16.07;12.83;;;15.60;99.90;;;;;;5092794;28;20175;-81
2023/05/22 05:06:07;;;;;;;19.03;13.47;;;15.50;99.90;;;;;;5094343;28;20240;-81
2023/05/22 05:08:33;;;;;;;17.00;13.00;;;15.60;99.90;;;;;;5093476;28;20651;-81
2023/05/22 05:10:58;;;;;;;18.17;13.87;;;15.60;99.90;;;;;;5093214;28;20197;-80
2023/05/22 05:13:24;;;;;;;15.53;12.80;;;15.60;99.90;;;;;;5093136;28;20174;-81
2023/05/22 05:15:50;;;;;;;13.43;12.03;;;15.60;99.90;;;;;;5092970;28;20628;-81
2023/05/22 05:18:16;;;;;;;15.03;12.83;;;15.60;99.90;;;;;;5093035;28;20194;-81
2023/05/22 05:20:42;;;;;;;14.47;12.50;;;15.60;99.90;;;;;;5092840;28;20181;-80
2023/05/22 05:23:09;;;;;;;16.43;13.97;;;15.60;99.90;;;;;;5092826;28;20217;-81
2023/05/22 05:25:37;;;;;;;16.67;14.07;;;15.60;99.90;;;;;;5093757;28;20189;-81
2023/05/22 05:28:09;;;;;;;15.37;13.43;;;15.60;99.90;;;;;;5092765;28;20170;-81
2023/05/22 05:30:36;;;;;;;14.87;13.13;;;15.70;99.90;;;;;;5093216;28;20604;-81
2023/05/22 05:33:01;;;;;;;14.83;12.53;;;15.70;99.90;;;;;;5092400;28;20223;-81
2023/05/22 05:35:27;;;;;;;14.10;12.60;;;15.70;99.90;;;;;;5094040;28;20193;-81
2023/05/22 05:37:52;;;;;;;15.27;13.07;;;15.70;99.90;;;;;;5092727;28;20198;-80
2023/05/22 05:40:18;;;;;;;14.43;12.93;;;15.70;99.90;;;;;;5094462;28;20174;-79
2023/05/22 05:42:43;;;;;;;15.27;12.33;;;15.70;99.90;;;;;;5098774;28;20170;-83
2023/05/22 05:45:10;;;;;;;14.47;12.83;;;15.70;99.90;;;;;;5097644;28;20194;-81
2023/05/22 05:47:35;;;;;;;20.30;12.67;;;15.70;99.90;;;;;;5100610;28;20178;-82
2023/05/22 05:50:01;;;;;;;18.17;12.53;;;15.80;99.90;;;;;;5097014;28;20184;-82
2023/05/22 05:52:31;;;;;;;14.37;12.87;;;15.80;99.90;;;;;;5098393;28;20170;-80
2023/05/22 05:54:57;;;;;;;14.90;13.13;;;15.80;99.90;;;;;;5097141;28;20202;-82
2023/05/22 05:57:22;;;;;;;16.20;13.40;;;15.80;99.90;;;;;;5096689;28;20255;-82
2023/05/22 05:59:48;;;;;;;19.07;13.40;;;15.90;99.90;;;;;;5098639;28;20276;-83
2023/05/22 06:02:13;;;;;;;15.73;13.40;;;15.90;99.90;;;;;;5097195;28;20257;-82
2023/05/22 06:04:40;;;;;;;17.80;15.13;;;16.00;99.90;;;;;;5097076;28;20198;-82
2023/05/22 06:07:06;;;;;;;16.23;14.47;;;16.00;99.90;;;;;;5098287;28;20158;-84
2023/05/22 06:09:32;;;;;;;20.83;15.50;;;16.10;99.90;;;;;;5098465;28;20682;-82
2023/05/22 06:11:57;;;;;;;23.63;16.20;;;16.10;99.90;;;;;;5096593;28;20170;-85
2023/05/22 06:14:23;;;;;;;24.27;18.03;;;16.40;99.90;;;;;;5097890;28;20175;-83
2023/05/22 06:16:48;;;;;;;22.43;17.93;;;16.20;99.90;;;;;;5097494;28;20178;-84
2023/05/22 06:19:14;;;;;;;29.03;22.53;;;16.30;99.90;;;;;;5098261;28;20198;-85
2023/05/22 06:21:39;;;;;;;33.80;24.43;;;16.30;99.90;;;;;;5096843;28;20174;-83
2023/05/22 06:24:05;;;;;;;32.43;25.30;;;16.40;99.90;;;;;;5098468;28;20211;-81
2023/05/22 06:26:31;;;;;;;32.73;25.33;;;16.50;99.90;;;;;;5097253;28;20347;-81
2023/05/22 06:28:57;;;;;;;31.90;24.53;;;16.60;99.90;;;;;;5114755;28;20204;-81
2023/05/22 06:31:23;;;;;;;35.23;26.80;;;16.70;99.90;;;;;;5117863;28;20177;-81
2023/05/22 06:33:49;;;;;;;39.27;28.97;;;16.70;99.90;;;;;;5119677;28;20224;-82
2023/05/22 06:36:15;;;;;;;34.80;28.77;;;16.80;99.90;;;;;;5117721;28;20202;-82
2023/05/22 06:38:40;;;;;;;40.40;29.67;;;16.80;99.90;;;;;;5118849;28;20288;-81
2023/05/22 06:41:06;;;;;;;42.87;30.27;;;16.90;99.90;;;;;;5118127;28;20631;-81
2023/05/22 06:43:32;;;;;;;41.67;29.73;;;17.00;99.90;;;;;;5117436;28;20681;-81
2023/05/22 06:45:58;;;;;;;44.53;31.60;;;17.00;99.90;;;;;;5117506;28;20189;-80
2023/05/22 06:48:23;;;;;;;40.80;32.17;;;17.10;99.90;;;;;;5118369;28;20204;-80
2023/05/22 06:50:48;;;;;;;45.37;34.07;;;17.20;99.90;;;;;;5116336;28;20215;-80
2023/05/22 06:53:14;;;;;;;47.23;34.17;;;17.20;99.90;;;;;;5115817;28;20169;-81
2023/05/22 06:55:40;;;;;;;44.87;34.03;;;17.30;99.90;;;;;;5116724;28;20658;-81
2023/05/22 06:58:06;;;;;;;44.17;34.60;;;17.30;99.90;;;;;;5117328;28;20247;-81
2023/05/22 07:00:31;;;;;;;46.87;35.60;;;17.40;99.90;;;;;;5115862;28;20169;-81
2023/05/22 07:02:57;;;;;;;44.67;34.73;;;17.50;99.90;;;;;;5116325;28;20161;-79
2023/05/22 07:05:22;;;;;;;49.47;36.17;;;17.50;99.90;;;;;;5114630;28;20639;-80
2023/05/22 07:07:48;;;;;;;43.23;35.43;;;17.60;99.90;;;;;;5115439;28;20268;-80
2023/05/22 07:10:14;;;;;;;48.60;37.33;;;17.50;99.90;;;;;;5117261;28;20249;-80
2023/05/22 07:12:39;;;;;;;52.10;36.70;;;17.70;99.90;;;;;;5116158;28;20523;-81
2023/05/22 07:15:05;;;;;;;51.17;37.93;;;17.70;99.90;;;;;;5116529;28;20708;-80
2023/05/22 07:17:31;;;;;;;55.57;39.93;;;17.80;99.90;;;;;;5115117;28;20201;-79
2023/05/22 07:19:56;;;;;;;46.67;36.80;;;17.90;99.90;;;;;;5115851;28;20650;-79
2023/05/22 07:22:22;;;;;;;47.33;35.93;;;17.90;99.90;;;;;;5116211;28;20181;-80
2023/05/22 07:24:47;;;;;;;45.03;35.87;;;18.00;99.90;;;;;;5116779;28;20200;-80
2023/05/22 07:27:13;;;;;;;50.37;37.10;;;18.00;99.90;;;;;;5117293;28;20173;-80
2023/05/22 07:29:39;;;;;;;48.67;37.73;;;18.10;99.90;;;;;;5117897;28;20176;-81
2023/05/22 07:32:05;;;;;;;50.93;38.77;;;18.10;99.90;;;;;;5116139;28;20554;-80
2023/05/22 07:34:32;;;;;;;49.73;39.23;;;18.20;99.90;;;;;;5115646;28;20650;-81
2023/05/22 07:36:59;;;;;;;49.53;39.13;;;18.20;99.90;;;;;;5117476;28;20158;-81
2023/05/22 07:39:25;;;;;;;48.30;38.70;;;18.20;99.90;;;;;;5116512;28;20166;-81
2023/05/22 07:41:50;;;;;;;49.27;37.93;;;18.20;99.90;;;;;;5115769;28;20622;-80
2023/05/22 07:44:16;;;;;;;49.30;38.43;;;18.20;99.90;;;;;;5117131;28;20174;-81
2023/05/22 07:46:42;;;;;;;48.17;37.23;;;18.20;99.90;;;;;;5119895;28;20178;-81
2023/05/22 07:49:09;;;;;;;50.33;39.97;;;18.20;99.90;;;;;;5117129;28;20192;-81
2023/05/22 07:51:34;;;;;;;49.57;39.30;;;18.10;99.90;;;;;;5117060;28;20200;-81
2023/05/22 07:54:00;;;;;;;56.03;43.13;;;18.10;99.90;;;;;;5120785;28;20177;-79
2023/05/22 07:56:26;;;;;;;60.07;44.13;;;18.10;99.90;;;;;;5125625;28;20259;-81
2023/05/22 07:58:52;;;;;;;61.90;43.07;;;18.00;99.90;;;;;;5119347;28;20236;-81
2023/05/22 08:01:17;;;;;;;61.73;42.77;;;17.90;99.90;;;;;;5116098;28;20169;-81
2023/05/22 08:03:43;;;;;;;62.53;42.17;;;17.90;99.90;;;;;;5116549;28;20165;-81
2023/05/22 08:06:09;;;;;;;70.87;44.63;;;17.90;99.90;;;;;;5116921;28;20190;-81
2023/05/22 08:08:35;;;;;;;65.57;44.40;;;18.00;99.90;;;;;;5117393;28;20174;-81
2023/05/22 08:11:00;;;;;;;77.43;48.67;;;18.00;99.90;;;;;;5115510;28;20532;-81
2023/05/22 08:13:26;;;;;;;70.90;49.50;;;18.00;99.90;;;;;;5116949;28;20180;-81
2023/05/22 08:15:51;;;;;;;79.53;48.73;;;17.90;99.90;;;;;;5115318;28;20621;-81
2023/05/22 08:18:17;;;;;;;68.97;47.03;;;17.90;99.90;;;;;;5115991;28;20250;-82
2023/05/22 08:20:42;;;;;;;68.63;46.30;;;17.90;99.90;;;;;;5115677;28;20173;-81
2023/05/22 08:23:08;;;;;;;62.60;44.13;;;17.90;99.90;;;;;;5116989;28;20181;-81
2023/05/22 08:25:33;;;;;;;59.60;41.40;;;17.90;99.90;;;;;;5116737;28;20220;-81
2023/05/22 08:27:59;;;;;;;62.80;45.03;;;17.90;99.90;;;;;;5115261;28;20244;-81
2023/05/22 08:30:25;;;;;;;61.80;42.53;;;17.90;99.90;;;;;;5114887;28;20654;-81
2023/05/22 08:32:50;;;;;;;57.90;42.80;;;17.90;99.90;;;;;;5116572;28;20230;-82
2023/05/22 08:35:16;;;;;;;60.40;44.73;;;17.80;99.90;;;;;;5115691;28;20205;-81
2023/05/22 08:37:41;;;;;;;59.37;43.87;;;17.90;99.90;;;;;;5114759;28;20201;-81
2023/05/22 08:40:11;;;;;;;62.00;46.93;;;18.00;99.90;;;;;;5116753;28;20170;-81
2023/05/22 08:42:37;;;;;;;54.97;44.17;;;18.10;99.90;;;;;;5116753;28;20165;-81
2023/05/22 08:45:05;;;;;;;51.70;42.57;;;18.10;99.90;;;;;;5115587;28;20201;-81
2023/05/22 08:47:34;;;;;;;58.90;44.20;;;18.10;99.90;;;;;;5115806;28;20185;-83
2023/05/22 08:50:00;;;;;;;51.63;41.00;;;18.10;99.90;;;;;;5114943;28;20212;-81
2023/05/22 08:52:36;;;;;;;50.57;39.77;;;18.10;99.90;;;;;;5115216;28;20303;-81
2023/05/22 08:55:04;;;;;;;53.80;39.33;;;18.20;99.90;;;;;;5114082;28;20205;-82
2023/05/22 08:57:31;;;;;;;46.30;37.13;;;18.30;99.90;;;;;;5115477;28;20292;-81
2023/05/22 08:59:56;;;;;;;50.00;39.17;;;18.40;99.90;;;;;;5115947;28;20177;-81
2023/05/22 09:02:23;;;;;;;45.53;36.97;;;18.50;99.90;;;;;;5116794;28;20180;-81
2023/05/22 09:04:48;;;;;;;44.00;35.67;;;18.60;99.90;;;;;;5117463;28;20190;-81
2023/05/22 09:07:14;;;;;;;45.03;36.43;;;18.40;99.90;;;;;;5117410;28;20223;-82
2023/05/22 09:09:40;;;;;;;47.63;35.20;;;18.60;99.90;;;;;;5117665;28;20181;-82
2023/05/22 09:12:10;;;;;;;44.40;35.67;;;18.60;99.90;;;;;;5114953;28;20557;-84
2023/05/22 09:14:39;;;;;;;41.33;35.90;;;18.60;99.90;;;;;;5114057;28;20204;-83
2023/05/22 09:17:05;;;;;;;46.83;34.73;;;18.70;99.90;;;;;;5115357;28;20197;-84
2023/05/22 09:19:31;;;;;;;54.60;43.37;;;18.60;99.90;;;;;;5115282;28;20683;-84
2023/05/22 09:22:06;;;;;;;45.20;36.70;;;18.60;99.90;;;;;;5115645;28;20181;-83
2023/05/22 09:24:41;;;;;;;41.00;34.80;;;18.70;99.90;;;;;;5113901;28;20219;-83
2023/05/22 09:27:07;;;;;;;53.37;39.73;;;18.60;99.90;;;;;;5115506;28;20166;-83
2023/05/22 09:29:47;;;;;;;59.03;48.23;;;18.70;99.90;;;;;;5122054;28;20284;-83
2023/05/22 09:32:13;;;;;;;56.27;45.83;;;18.70;99.90;;;;;;5117582;28;20207;-82
2023/05/22 09:34:39;;;;;;;48.13;38.97;;;18.70;99.90;;;;;;5115279;28;20213;-83
2023/05/22 09:37:05;;;;;;;41.87;34.17;;;18.70;99.90;;;;;;5114214;28;20180;-84
2023/05/22 09:39:42;;;;;;;44.10;34.37;;;18.60;99.90;;;;;;5116689;28;20664;-83
2023/05/22 09:42:10;;;;;;;62.77;44.20;;;18.60;99.90;;;;;;5132892;28;20208;-83
2023/05/22 09:44:36;;;;;;;58.37;43.63;;;18.60;99.90;;;;;;5129985;28;20194;-81
2023/05/22 09:47:02;;;;;;;63.50;45.03;;;18.50;99.90;;;;;;5117605;28;20177;-84
2023/05/22 09:49:28;;;;;;;62.40;45.17;;;18.40;99.90;;;;;;5116526;28;20288;-81
2023/05/22 09:51:54;;;;;;;71.70;49.87;;;18.40;99.90;;;;;;5118414;28;20173;-83
2023/05/22 09:54:24;;;;;;;63.23;47.17;;;18.40;99.90;;;;;;5116067;28;20642;-83
2023/05/22 09:56:57;;;;;;;54.97;41.57;;;18.50;99.90;;;;;;5118643;28;20169;-84
2023/05/22 09:59:28;;;;;;;57.73;46.60;;;18.60;99.90;;;;;;5116634;28;20194;-83
2023/05/22 10:01:55;;;;;;;55.87;44.07;;;18.60;99.90;;;;;;5123734;28;20169;-84
2023/05/22 10:04:21;;;;;;;60.67;47.60;;;18.60;99.90;;;;;;5123384;28;20181;-83
2023/05/22 10:06:50;;;;;;;57.17;43.70;;;18.70;99.90;;;;;;5123654;28;20201;-83
2023/05/22 10:09:18;;;;;;;58.40;45.60;;;18.70;99.90;;;;;;5126592;28;20178;-83
2023/05/22 10:11:45;;;;;;;63.70;46.93;;;18.40;99.90;;;;;;5122189;28;20175;-82
2023/05/22 10:14:11;;;;;;;62.63;47.73;;;18.50;99.90;;;;;;5115858;28;20219;-83
2023/05/22 10:16:37;;;;;;;64.10;48.87;;;18.50;99.90;;;;;;5113859;28;20176;-84
2023/05/22 10:19:04;;;;;;;56.43;43.23;;;18.30;99.90;;;;;;5116128;28;20282;-84
2023/05/22 10:21:31;;;;;;;52.27;42.17;;;18.40;99.90;;;;;;5117729;28;20300;-85
2023/05/22 10:24:00;;;;;;;59.53;44.93;;;18.70;99.90;;;;;;5116577;28;20180;-85
2023/05/22 10:26:27;;;;;;;71.70;52.10;;;18.60;99.90;;;;;;5116258;28;20189;-85
2023/05/22 10:29:10;;;;;;;55.93;43.93;;;18.60;99.90;;;;;;5121693;28;20317;-85
2023/05/22 10:31:44;;;;;;;53.77;41.90;;;18.60;99.90;;;;;;5122089;28;20507;-84
2023/05/22 10:34:16;;;;;;;67.67;54.07;;;18.60;99.90;;;;;;5122099;28;20280;-83
2023/05/22 10:37:04;;;;;;;81.47;59.93;;;18.70;99.90;;;;;;5123220;28;20174;-85
2023/05/22 10:40:06;;;;;;;59.30;48.07;;;18.60;99.90;;;;;;5121469;28;20216;-84
2023/05/22 10:42:32;;;;;;;66.93;49.37;;;18.80;99.90;;;;;;5122131;28;20157;-84
2023/05/22 10:44:59;;;;;;;60.07;47.67;;;19.00;99.90;;;;;;5118781;28;20194;-83
2023/05/22 10:47:25;;;;;;;53.50;42.03;;;19.10;99.90;;;;;;5121402;28;20173;-84
2023/05/22 10:50:08;;;;;;;54.07;41.83;;;19.20;99.90;;;;;;5123026;28;20199;-84
2023/05/22 10:52:34;;;;;;;56.87;45.00;;;19.20;99.90;;;;;;5120749;28;20165;-85
2023/05/22 10:55:04;;;;;;;54.90;43.10;;;19.20;99.90;;;;;;5120746;28;20197;-84
2023/05/22 10:57:33;;;;;;;56.27;42.30;;;19.40;99.90;;;;;;5123841;28;20248;-84
2023/05/22 11:00:28;;;;;;;57.57;40.93;;;19.50;99.90;;;;;;5121280;28;20192;-83
2023/05/22 11:03:04;;;;;;;46.70;36.57;;;19.30;99.90;;;;;;5117496;28;20177;-84
2023/05/22 11:05:30;;;;;;;43.10;34.97;;;19.30;99.90;;;;;;5122008;28;20185;-84
2023/05/22 11:08:31;;;;;;;43.53;35.63;;;19.40;99.90;;;;;;5121071;28;20593;-84
2023/05/22 11:11:08;;;;;;;40.17;33.40;;;19.60;99.90;;;;;;5119954;28;20169;-84
2023/05/22 11:13:34;;;;;;;45.23;34.00;;;19.80;99.90;;;;;;5121908;28;20625;-84
2023/05/22 11:16:04;;;;;;;37.73;30.30;;;20.00;99.90;;;;;;5118864;28;20295;-84
2023/05/22 11:18:29;;;;;;;43.30;33.90;;;20.00;99.90;;;;;;5120340;28;20234;-84
2023/05/22 11:20:57;;;;;;;40.33;31.97;;;20.10;99.90;;;;;;5121846;28;20209;-83
2023/05/22 11:23:24;;;;;;;39.10;30.67;;;20.20;99.90;;;;;;5120515;28;20218;-84
2023/05/22 11:25:50;;;;;;;48.37;34.10;;;20.30;99.90;;;;;;5120610;28;20204;-84
2023/05/22 11:28:15;;;;;;;45.03;33.40;;;20.60;99.90;;;;;;5119424;28;20177;-85
2023/05/22 11:30:42;;;;;;;44.43;31.27;;;20.30;99.90;;;;;;5119655;28;20598;-84
2023/05/22 11:33:08;;;;;;;39.77;31.70;;;20.40;99.90;;;;;;5122496;28;20196;-84
2023/05/22 11:35:34;;;;;;;42.03;32.33;;;20.50;99.90;;;;;;5120592;28;20208;-85
2023/05/22 11:38:03;;;;;;;38.53;29.20;;;20.50;99.90;;;;;;5120976;28;20201;-84
2023/05/22 11:40:29;;;;;;;40.70;31.20;;;20.50;99.90;;;;;;5121874;28;20648;-84
2023/05/22 11:42:55;;;;;;;34.93;28.80;;;20.80;99.90;;;;;;5120650;28;20170;-84
2023/05/22 11:45:21;;;;;;;40.50;31.60;;;21.00;99.90;;;;;;5119917;28;20200;-84
2023/05/22 11:47:47;;;;;;;33.87;28.37;;;20.80;99.90;;;;;;5119947;28;20177;-84
2023/05/22 11:50:13;;;;;;;37.97;30.30;;;21.00;99.90;;;;;;5121391;28;20235;-84
2023/05/22 11:52:41;;;;;;;35.70;28.10;;;21.00;99.90;;;;;;5121156;28;20220;-84
2023/05/22 11:55:07;;;;;;;44.90;34.07;;;21.00;99.90;;;;;;5124694;28;20197;-82
2023/05/22 11:57:33;;;;;;;43.20;35.20;;;21.20;99.90;;;;;;5121403;28;20247;-80
2023/05/22 12:00:00;;;;;;;40.27;32.90;;;21.20;99.90;;;;;;5122395;28;20260;-81
2023/05/22 12:02:26;;;;;;;40.87;32.90;;;21.30;99.90;;;;;;5123971;28;20536;-82
2023/05/22 12:04:56;;;;;;;41.33;31.77;;;21.40;99.90;;;;;;5123956;28;20194;-82
2023/05/22 12:07:22;;;;;;;34.50;30.10;;;21.50;99.90;;;;;;5122649;28;20204;-82
2023/05/22 12:09:48;;;;;;;39.70;31.77;;;21.60;99.90;;;;;;5123739;28;20180;-82
2023/05/22 12:12:17;;;;;;;37.90;29.93;;;21.60;99.90;;;;;;5123040;28;20174;-81
2023/05/22 12:14:44;;;;;;;37.37;29.37;;;21.70;66.10;;;;;;5123846;28;20256;-81
2023/05/22 12:17:15;;;;;;;39.17;30.00;;;21.70;32.40;;;;;;5128544;28;20232;-81
2023/05/22 12:19:42;;;;;;;41.83;34.43;;;21.80;49.90;;;;;;5127672;28;20170;-81
2023/05/22 12:22:08;;;;;;;37.97;31.70;;;22.00;1.00;;;;;;5129343;28;20190;-81
2023/05/22 12:24:41;;;;;;;32.87;28.07;;;21.90;1.00;;;;;;5134288;28;20265;-81
2023/05/22 12:27:09;;;;;;;38.30;28.80;;;22.20;62.50;;;;;;5125897;28;20212;-82
2023/05/22 12:29:35;;;;;;;37.40;30.87;;;22.20;20.70;;;;;;5121904;28;20185;-81
2023/05/22 12:32:02;;;;;;;35.40;29.77;;;22.20;39.30;;;;;;5120328;28;20208;-81